Terminal Aerodrome Forecast
Issued by NWS

Home | Current Version | Previous Version | Graphics & Text | Print | Product List | Glossary On
Versions: 1 2 3 4 5 6 7 8 9 10 11 12 13 14 15 16 17 18 19
000
FTUS43 KBIS 162003 AAA
TAFDIK
TAF AMD
KDIK 162003Z 1620/1718 31011KT P6SM -RA BKN012 OVC022
     FM170100 30006KT P6SM BKN025
     FM170600 27006KT P6SM SCT035
     FM171400 22006KT P6SM FEW100=

USA.gov is the U.S. government's official web portal to all federal, state and local government web resources and services.